sensor_id;sensor_type;location;lat;lon;timestamp;P1;durP1;ratioP1;P2;durP2;ratioP2
17570;SDS011;8903;52.220;20.978;2023-05-19T00:01:12;2.20;;;2.00;;
17570;SDS011;8903;52.220;20.978;2023-05-19T00:03:48;2.73;;;1.70;;
17570;SDS011;8903;52.220;20.978;2023-05-19T00:06:17;2.03;;;1.50;;
17570;SDS011;8903;52.220;20.978;2023-05-19T00:08:49;2.80;;;2.23;;
17570;SDS011;8903;52.220;20.978;2023-05-19T00:11:21;1.63;;;1.50;;
17570;SDS011;8903;52.220;20.978;2023-05-19T00:13:49;6.70;;;2.00;;
17570;SDS011;8903;52.220;20.978;2023-05-19T00:16:18;8.97;;;1.80;;
17570;SDS011;8903;52.220;20.978;2023-05-19T00:18:46;3.77;;;1.43;;
17570;SDS011;8903;52.220;20.978;2023-05-19T00:21:13;2.03;;;1.83;;
17570;SDS011;8903;52.220;20.978;2023-05-19T00:23:41;2.50;;;1.50;;
17570;SDS011;8903;52.220;20.978;2023-05-19T00:26:08;1.73;;;1.63;;
17570;SDS011;8903;52.220;20.978;2023-05-19T00:28:37;2.30;;;2.10;;
17570;SDS011;8903;52.220;20.978;2023-05-19T00:31:05;2.30;;;1.57;;
17570;SDS011;8903;52.220;20.978;2023-05-19T00:33:32;3.17;;;1.53;;
17570;SDS011;8903;52.220;20.978;2023-05-19T00:36:00;3.33;;;1.70;;
17570;SDS011;8903;52.220;20.978;2023-05-19T00:38:29;2.40;;;2.13;;
17570;SDS011;8903;52.220;20.978;2023-05-19T00:40:56;4.40;;;1.60;;
17570;SDS011;8903;52.220;20.978;2023-05-19T00:43:24;3.90;;;2.13;;
17570;SDS011;8903;52.220;20.978;2023-05-19T00:45:51;4.93;;;1.87;;
17570;SDS011;8903;52.220;20.978;2023-05-19T00:48:19;3.50;;;1.93;;
17570;SDS011;8903;52.220;20.978;2023-05-19T00:50:46;2.23;;;1.43;;
17570;SDS011;8903;52.220;20.978;2023-05-19T00:53:14;2.83;;;1.80;;
17570;SDS011;8903;52.220;20.978;2023-05-19T00:55:43;2.60;;;1.50;;
17570;SDS011;8903;52.220;20.978;2023-05-19T00:58:12;1.97;;;1.87;;
17570;SDS011;8903;52.220;20.978;2023-05-19T01:00:40;3.27;;;1.87;;
17570;SDS011;8903;52.220;20.978;2023-05-19T01:03:07;1.63;;;1.50;;
17570;SDS011;8903;52.220;20.978;2023-05-19T01:05:38;3.07;;;1.53;;
17570;SDS011;8903;52.220;20.978;2023-05-19T01:08:06;2.40;;;1.67;;
17570;SDS011;8903;52.220;20.978;2023-05-19T01:10:33;1.63;;;1.53;;
17570;SDS011;8903;52.220;20.978;2023-05-19T01:13:00;4.20;;;1.90;;
17570;SDS011;8903;52.220;20.978;2023-05-19T01:15:56;1.60;;;1.50;;
17570;SDS011;8903;52.220;20.978;2023-05-19T01:18:38;4.90;;;2.63;;
17570;SDS011;8903;52.220;20.978;2023-05-19T01:21:21;2.47;;;1.30;;
17570;SDS011;8903;52.220;20.978;2023-05-19T01:24:03;5.60;;;2.00;;
17570;SDS011;8903;52.220;20.978;2023-05-19T01:26:47;2.20;;;1.70;;
17570;SDS011;8903;52.220;20.978;2023-05-19T01:29:42;2.77;;;1.50;;
17570;SDS011;8903;52.220;20.978;2023-05-19T01:32:27;1.40;;;1.30;;
17570;SDS011;8903;52.220;20.978;2023-05-19T01:34:55;3.70;;;1.30;;
17570;SDS011;8903;52.220;20.978;2023-05-19T01:37:23;3.00;;;2.10;;
17570;SDS011;8903;52.220;20.978;2023-05-19T01:39:52;3.33;;;1.40;;
17570;SDS011;8903;52.220;20.978;2023-05-19T01:42:20;3.20;;;2.10;;
17570;SDS011;8903;52.220;20.978;2023-05-19T01:44:48;2.40;;;1.97;;
17570;SDS011;8903;52.220;20.978;2023-05-19T01:47:16;2.13;;;1.70;;
17570;SDS011;8903;52.220;20.978;2023-05-19T01:49:45;3.43;;;1.83;;
17570;SDS011;8903;52.220;20.978;2023-05-19T01:52:12;2.07;;;1.90;;
17570;SDS011;8903;52.220;20.978;2023-05-19T01:54:39;2.13;;;1.97;;
17570;SDS011;8903;52.220;20.978;2023-05-19T01:57:08;2.40;;;2.13;;
17570;SDS011;8903;52.220;20.978;2023-05-19T01:59:41;2.50;;;1.87;;
17570;SDS011;8903;52.220;20.978;2023-05-19T02:02:19;2.37;;;1.90;;
17570;SDS011;8903;52.220;20.978;2023-05-19T02:04:59;2.83;;;1.93;;
17570;SDS011;8903;52.220;20.978;2023-05-19T02:07:35;2.53;;;2.10;;
17570;SDS011;8903;52.220;20.978;2023-05-19T02:10:09;2.50;;;2.13;;
17570;SDS011;8903;52.220;20.978;2023-05-19T02:12:39;3.33;;;1.90;;
17570;SDS011;8903;52.220;20.978;2023-05-19T02:15:08;2.70;;;2.00;;
17570;SDS011;8903;52.220;20.978;2023-05-19T02:17:39;2.40;;;2.20;;
17570;SDS011;8903;52.220;20.978;2023-05-19T02:20:13;4.43;;;2.37;;
17570;SDS011;8903;52.220;20.978;2023-05-19T02:22:40;5.10;;;2.40;;
17570;SDS011;8903;52.220;20.978;2023-05-19T02:25:08;2.90;;;2.47;;
17570;SDS011;8903;52.220;20.978;2023-05-19T02:27:35;2.37;;;2.00;;
17570;SDS011;8903;52.220;20.978;2023-05-19T02:30:04;2.47;;;2.27;;
17570;SDS011;8903;52.220;20.978;2023-05-19T02:32:32;3.80;;;2.63;;
17570;SDS011;8903;52.220;20.978;2023-05-19T02:35:00;3.13;;;2.80;;
17570;SDS011;8903;52.220;20.978;2023-05-19T02:37:29;2.70;;;2.50;;
17570;SDS011;8903;52.220;20.978;2023-05-19T02:39:56;4.17;;;2.63;;
17570;SDS011;8903;52.220;20.978;2023-05-19T02:42:23;4.50;;;2.70;;
17570;SDS011;8903;52.220;20.978;2023-05-19T02:44:51;3.90;;;2.83;;
17570;SDS011;8903;52.220;20.978;2023-05-19T02:47:19;4.37;;;2.57;;
17570;SDS011;8903;52.220;20.978;2023-05-19T02:49:46;3.10;;;2.80;;
17570;SDS011;8903;52.220;20.978;2023-05-19T02:52:14;7.77;;;3.70;;
17570;SDS011;8903;52.220;20.978;2023-05-19T02:54:42;5.37;;;3.30;;
17570;SDS011;8903;52.220;20.978;2023-05-19T02:57:10;4.50;;;2.97;;
17570;SDS011;8903;52.220;20.978;2023-05-19T02:59:37;5.77;;;3.23;;
17570;SDS011;8903;52.220;20.978;2023-05-19T03:02:04;4.10;;;3.43;;
17570;SDS011;8903;52.220;20.978;2023-05-19T03:04:30;3.53;;;2.90;;
17570;SDS011;8903;52.220;20.978;2023-05-19T03:07:05;2.63;;;2.43;;
17570;SDS011;8903;52.220;20.978;2023-05-19T03:09:34;3.47;;;3.17;;
17570;SDS011;8903;52.220;20.978;2023-05-19T03:12:02;4.03;;;3.63;;
17570;SDS011;8903;52.220;20.978;2023-05-19T03:14:31;4.70;;;3.03;;
17570;SDS011;8903;52.220;20.978;2023-05-19T03:17:01;3.03;;;2.73;;
17570;SDS011;8903;52.220;20.978;2023-05-19T03:19:29;6.23;;;3.27;;
17570;SDS011;8903;52.220;20.978;2023-05-19T03:21:56;3.53;;;3.23;;
17570;SDS011;8903;52.220;20.978;2023-05-19T03:24:24;3.70;;;3.40;;
17570;SDS011;8903;52.220;20.978;2023-05-19T03:26:51;4.00;;;2.67;;
17570;SDS011;8903;52.220;20.978;2023-05-19T03:29:19;4.50;;;3.50;;
17570;SDS011;8903;52.220;20.978;2023-05-19T03:31:46;2.97;;;2.77;;
17570;SDS011;8903;52.220;20.978;2023-05-19T03:34:15;5.43;;;3.10;;
17570;SDS011;8903;52.220;20.978;2023-05-19T03:36:42;3.63;;;3.33;;
17570;SDS011;8903;52.220;20.978;2023-05-19T03:39:13;2.77;;;2.57;;
17570;SDS011;8903;52.220;20.978;2023-05-19T03:41:40;3.40;;;3.10;;
17570;SDS011;8903;52.220;20.978;2023-05-19T03:44:07;7.03;;;3.40;;
17570;SDS011;8903;52.220;20.978;2023-05-19T03:46:37;4.93;;;3.33;;
17570;SDS011;8903;52.220;20.978;2023-05-19T03:49:25;3.60;;;3.30;;
17570;SDS011;8903;52.220;20.978;2023-05-19T03:52:24;2.80;;;2.60;;
17570;SDS011;8903;52.220;20.978;2023-05-19T03:54:56;3.83;;;3.20;;
17570;SDS011;8903;52.220;20.978;2023-05-19T03:57:23;3.90;;;3.60;;
17570;SDS011;8903;52.220;20.978;2023-05-19T03:59:52;3.73;;;3.17;;
17570;SDS011;8903;52.220;20.978;2023-05-19T04:02:21;3.53;;;3.23;;
17570;SDS011;8903;52.220;20.978;2023-05-19T04:04:48;9.00;;;3.33;;
17570;SDS011;8903;52.220;20.978;2023-05-19T04:07:15;5.87;;;4.50;;
17570;SDS011;8903;52.220;20.978;2023-05-19T04:09:42;5.93;;;4.70;;
17570;SDS011;8903;52.220;20.978;2023-05-19T04:12:09;4.37;;;3.90;;
17570;SDS011;8903;52.220;20.978;2023-05-19T04:14:36;4.47;;;4.07;;
17570;SDS011;8903;52.220;20.978;2023-05-19T04:17:03;4.60;;;4.20;;
17570;SDS011;8903;52.220;20.978;2023-05-19T04:19:33;7.20;;;4.37;;
17570;SDS011;8903;52.220;20.978;2023-05-19T04:22:00;6.47;;;4.43;;
17570;SDS011;8903;52.220;20.978;2023-05-19T04:24:27;8.00;;;3.90;;
17570;SDS011;8903;52.220;20.978;2023-05-19T04:26:54;5.40;;;4.20;;
17570;SDS011;8903;52.220;20.978;2023-05-19T04:29:26;4.77;;;3.60;;
17570;SDS011;8903;52.220;20.978;2023-05-19T04:31:53;5.13;;;4.60;;
17570;SDS011;8903;52.220;20.978;2023-05-19T04:34:21;3.97;;;3.57;;
17570;SDS011;8903;52.220;20.978;2023-05-19T04:36:50;4.40;;;3.93;;
17570;SDS011;8903;52.220;20.978;2023-05-19T04:39:17;5.47;;;4.17;;
17570;SDS011;8903;52.220;20.978;2023-05-19T04:41:45;6.43;;;4.47;;
17570;SDS011;8903;52.220;20.978;2023-05-19T04:44:13;5.27;;;4.17;;
17570;SDS011;8903;52.220;20.978;2023-05-19T04:46:43;8.27;;;4.07;;
17570;SDS011;8903;52.220;20.978;2023-05-19T04:49:11;4.40;;;3.97;;
17570;SDS011;8903;52.220;20.978;2023-05-19T04:51:38;3.50;;;3.20;;
17570;SDS011;8903;52.220;20.978;2023-05-19T04:54:08;4.23;;;3.83;;
17570;SDS011;8903;52.220;20.978;2023-05-19T04:56:35;3.97;;;3.67;;
17570;SDS011;8903;52.220;20.978;2023-05-19T04:59:03;6.20;;;4.13;;
17570;SDS011;8903;52.220;20.978;2023-05-19T05:01:31;5.87;;;3.53;;
17570;SDS011;8903;52.220;20.978;2023-05-19T05:03:59;4.80;;;3.47;;
17570;SDS011;8903;52.220;20.978;2023-05-19T05:06:26;4.73;;;3.93;;
17570;SDS011;8903;52.220;20.978;2023-05-19T05:08:53;4.93;;;4.03;;
17570;SDS011;8903;52.220;20.978;2023-05-19T05:11:22;6.13;;;4.60;;
17570;SDS011;8903;52.220;20.978;2023-05-19T05:13:50;5.90;;;4.30;;
17570;SDS011;8903;52.220;20.978;2023-05-19T05:16:18;5.37;;;4.10;;
17570;SDS011;8903;52.220;20.978;2023-05-19T05:18:46;4.93;;;4.43;;
17570;SDS011;8903;52.220;20.978;2023-05-19T05:21:14;5.53;;;4.03;;
17570;SDS011;8903;52.220;20.978;2023-05-19T05:23:41;5.17;;;3.80;;
17570;SDS011;8903;52.220;20.978;2023-05-19T05:26:09;6.43;;;4.10;;
17570;SDS011;8903;52.220;20.978;2023-05-19T05:28:46;4.63;;;3.50;;
17570;SDS011;8903;52.220;20.978;2023-05-19T05:31:13;4.70;;;3.70;;
17570;SDS011;8903;52.220;20.978;2023-05-19T05:33:41;5.10;;;3.73;;
17570;SDS011;8903;52.220;20.978;2023-05-19T05:36:08;4.70;;;4.30;;
17570;SDS011;8903;52.220;20.978;2023-05-19T05:38:36;4.33;;;3.60;;
17570;SDS011;8903;52.220;20.978;2023-05-19T05:41:03;6.97;;;3.73;;
17570;SDS011;8903;52.220;20.978;2023-05-19T05:43:33;5.70;;;3.43;;
17570;SDS011;8903;52.220;20.978;2023-05-19T05:46:03;4.20;;;3.80;;
17570;SDS011;8903;52.220;20.978;2023-05-19T05:48:31;5.17;;;3.50;;
17570;SDS011;8903;52.220;20.978;2023-05-19T05:50:58;4.50;;;3.53;;
17570;SDS011;8903;52.220;20.978;2023-05-19T05:53:29;4.83;;;3.30;;
17570;SDS011;8903;52.220;20.978;2023-05-19T05:56:01;5.23;;;3.57;;
17570;SDS011;8903;52.220;20.978;2023-05-19T05:58:37;4.10;;;3.70;;
17570;SDS011;8903;52.220;20.978;2023-05-19T06:01:06;4.23;;;3.83;;
17570;SDS011;8903;52.220;20.978;2023-05-19T06:03:36;3.97;;;3.67;;
17570;SDS011;8903;52.220;20.978;2023-05-19T06:06:06;6.27;;;3.77;;
17570;SDS011;8903;52.220;20.978;2023-05-19T06:08:33;5.87;;;3.40;;
17570;SDS011;8903;52.220;20.978;2023-05-19T06:11:01;4.90;;;4.40;;
17570;SDS011;8903;52.220;20.978;2023-05-19T06:13:33;4.53;;;3.73;;
17570;SDS011;8903;52.220;20.978;2023-05-19T06:16:02;2.90;;;2.60;;
17570;SDS011;8903;52.220;20.978;2023-05-19T06:18:36;4.47;;;4.00;;
17570;SDS011;8903;52.220;20.978;2023-05-19T06:21:03;3.57;;;3.27;;
17570;SDS011;8903;52.220;20.978;2023-05-19T06:23:30;5.77;;;3.33;;
17570;SDS011;8903;52.220;20.978;2023-05-19T06:25:58;4.60;;;2.90;;
17570;SDS011;8903;52.220;20.978;2023-05-19T06:28:25;4.27;;;3.00;;
17570;SDS011;8903;52.220;20.978;2023-05-19T06:30:54;6.20;;;3.57;;
17570;SDS011;8903;52.220;20.978;2023-05-19T06:33:43;3.53;;;3.20;;
17570;SDS011;8903;52.220;20.978;2023-05-19T06:36:09;5.50;;;3.40;;
17570;SDS011;8903;52.220;20.978;2023-05-19T06:38:40;5.20;;;3.57;;
17570;SDS011;8903;52.220;20.978;2023-05-19T06:41:08;4.27;;;3.10;;
17570;SDS011;8903;52.220;20.978;2023-05-19T06:43:36;5.03;;;4.40;;
17570;SDS011;8903;52.220;20.978;2023-05-19T06:46:03;4.40;;;3.70;;
17570;SDS011;8903;52.220;20.978;2023-05-19T06:48:31;4.73;;;3.30;;
17570;SDS011;8903;52.220;20.978;2023-05-19T06:51:00;3.90;;;3.43;;
17570;SDS011;8903;52.220;20.978;2023-05-19T06:53:27;4.70;;;4.00;;
17570;SDS011;8903;52.220;20.978;2023-05-19T06:55:55;4.20;;;3.80;;
17570;SDS011;8903;52.220;20.978;2023-05-19T06:58:22;5.87;;;4.00;;
17570;SDS011;8903;52.220;20.978;2023-05-19T07:00:51;6.77;;;3.83;;
17570;SDS011;8903;52.220;20.978;2023-05-19T07:03:20;7.70;;;3.73;;
17570;SDS011;8903;52.220;20.978;2023-05-19T07:05:47;3.73;;;3.30;;
17570;SDS011;8903;52.220;20.978;2023-05-19T07:08:15;8.90;;;4.27;;
17570;SDS011;8903;52.220;20.978;2023-05-19T07:10:42;5.00;;;3.43;;
17570;SDS011;8903;52.220;20.978;2023-05-19T07:13:12;4.13;;;3.67;;
17570;SDS011;8903;52.220;20.978;2023-05-19T07:15:39;8.10;;;5.00;;
17570;SDS011;8903;52.220;20.978;2023-05-19T07:18:06;6.20;;;3.80;;
17570;SDS011;8903;52.220;20.978;2023-05-19T07:20:34;5.63;;;4.07;;
17570;SDS011;8903;52.220;20.978;2023-05-19T07:23:02;6.63;;;3.93;;
17570;SDS011;8903;52.220;20.978;2023-05-19T07:25:30;9.03;;;4.70;;
17570;SDS011;8903;52.220;20.978;2023-05-19T07:27:58;4.10;;;3.70;;
17570;SDS011;8903;52.220;20.978;2023-05-19T07:30:26;16.77;;;4.67;;
17570;SDS011;8903;52.220;20.978;2023-05-19T07:32:54;4.37;;;4.07;;
17570;SDS011;8903;52.220;20.978;2023-05-19T07:35:21;8.47;;;3.90;;
17570;SDS011;8903;52.220;20.978;2023-05-19T07:37:48;3.77;;;3.40;;
17570;SDS011;8903;52.220;20.978;2023-05-19T07:40:16;10.80;;;4.03;;
17570;SDS011;8903;52.220;20.978;2023-05-19T07:42:44;3.87;;;3.47;;
17570;SDS011;8903;52.220;20.978;2023-05-19T07:45:11;7.80;;;4.80;;
17570;SDS011;8903;52.220;20.978;2023-05-19T07:47:38;5.93;;;4.30;;
17570;SDS011;8903;52.220;20.978;2023-05-19T07:50:06;6.97;;;3.83;;
17570;SDS011;8903;52.220;20.978;2023-05-19T07:52:33;5.07;;;3.90;;
17570;SDS011;8903;52.220;20.978;2023-05-19T07:55:01;5.70;;;3.87;;
17570;SDS011;8903;52.220;20.978;2023-05-19T07:57:29;4.23;;;3.83;;
17570;SDS011;8903;52.220;20.978;2023-05-19T07:59:57;7.63;;;4.27;;
17570;SDS011;8903;52.220;20.978;2023-05-19T08:02:24;7.17;;;4.10;;
17570;SDS011;8903;52.220;20.978;2023-05-19T08:04:51;12.77;;;4.47;;
17570;SDS011;8903;52.220;20.978;2023-05-19T08:07:19;15.93;;;4.63;;
17570;SDS011;8903;52.220;20.978;2023-05-19T08:09:46;7.03;;;4.60;;
17570;SDS011;8903;52.220;20.978;2023-05-19T08:12:13;7.90;;;5.70;;
17570;SDS011;8903;52.220;20.978;2023-05-19T08:14:40;5.27;;;4.43;;
17570;SDS011;8903;52.220;20.978;2023-05-19T08:17:08;8.20;;;4.43;;
17570;SDS011;8903;52.220;20.978;2023-05-19T08:19:35;10.47;;;5.53;;
17570;SDS011;8903;52.220;20.978;2023-05-19T08:22:02;6.90;;;4.93;;
17570;SDS011;8903;52.220;20.978;2023-05-19T08:24:30;8.70;;;5.30;;
17570;SDS011;8903;52.220;20.978;2023-05-19T08:26:57;11.90;;;6.37;;
17570;SDS011;8903;52.220;20.978;2023-05-19T08:29:25;9.13;;;5.70;;
17570;SDS011;8903;52.220;20.978;2023-05-19T08:31:51;10.13;;;5.87;;
17570;SDS011;8903;52.220;20.978;2023-05-19T08:34:20;10.23;;;4.97;;
17570;SDS011;8903;52.220;20.978;2023-05-19T08:36:47;12.20;;;5.43;;
17570;SDS011;8903;52.220;20.978;2023-05-19T08:39:14;11.83;;;6.00;;
17570;SDS011;8903;52.220;20.978;2023-05-19T08:41:43;10.23;;;5.67;;
17570;SDS011;8903;52.220;20.978;2023-05-19T08:44:10;13.37;;;5.30;;
17570;SDS011;8903;52.220;20.978;2023-05-19T08:46:37;10.80;;;4.70;;
17570;SDS011;8903;52.220;20.978;2023-05-19T08:49:07;11.67;;;5.37;;
17570;SDS011;8903;52.220;20.978;2023-05-19T08:51:40;9.63;;;5.17;;
17570;SDS011;8903;52.220;20.978;2023-05-19T08:54:15;9.00;;;5.80;;
17570;SDS011;8903;52.220;20.978;2023-05-19T08:56:44;15.47;;;5.77;;
17570;SDS011;8903;52.220;20.978;2023-05-19T08:59:12;8.87;;;6.87;;
17570;SDS011;8903;52.220;20.978;2023-05-19T09:01:40;9.53;;;5.57;;
17570;SDS011;8903;52.220;20.978;2023-05-19T09:04:09;7.27;;;4.67;;
17570;SDS011;8903;52.220;20.978;2023-05-19T09:06:37;8.27;;;4.50;;
17570;SDS011;8903;52.220;20.978;2023-05-19T09:09:07;9.17;;;4.90;;
17570;SDS011;8903;52.220;20.978;2023-05-19T09:11:35;6.57;;;5.03;;
17570;SDS011;8903;52.220;20.978;2023-05-19T09:14:02;13.40;;;6.33;;
17570;SDS011;8903;52.220;20.978;2023-05-19T09:16:29;10.10;;;5.97;;
17570;SDS011;8903;52.220;20.978;2023-05-19T09:18:58;10.13;;;4.83;;
17570;SDS011;8903;52.220;20.978;2023-05-19T09:21:26;7.23;;;5.23;;
17570;SDS011;8903;52.220;20.978;2023-05-19T09:23:55;12.37;;;5.63;;
17570;SDS011;8903;52.220;20.978;2023-05-19T09:26:24;14.27;;;5.80;;
17570;SDS011;8903;52.220;20.978;2023-05-19T09:29:09;11.07;;;5.60;;
17570;SDS011;8903;52.220;20.978;2023-05-19T09:31:36;13.00;;;5.67;;
17570;SDS011;8903;52.220;20.978;2023-05-19T09:34:03;9.80;;;5.50;;
17570;SDS011;8903;52.220;20.978;2023-05-19T09:36:38;7.33;;;5.50;;
17570;SDS011;8903;52.220;20.978;2023-05-19T09:39:11;10.33;;;5.03;;
17570;SDS011;8903;52.220;20.978;2023-05-19T09:41:40;11.73;;;5.73;;
17570;SDS011;8903;52.220;20.978;2023-05-19T09:44:11;13.43;;;5.50;;
17570;SDS011;8903;52.220;20.978;2023-05-19T09:46:45;11.80;;;5.33;;
17570;SDS011;8903;52.220;20.978;2023-05-19T09:49:14;14.33;;;6.13;;
17570;SDS011;8903;52.220;20.978;2023-05-19T09:51:45;9.63;;;5.90;;
17570;SDS011;8903;52.220;20.978;2023-05-19T09:54:13;10.90;;;5.90;;
17570;SDS011;8903;52.220;20.978;2023-05-19T09:56:42;9.27;;;6.03;;
17570;SDS011;8903;52.220;20.978;2023-05-19T09:59:09;12.10;;;5.87;;
17570;SDS011;8903;52.220;20.978;2023-05-19T10:01:39;11.87;;;6.07;;
17570;SDS011;8903;52.220;20.978;2023-05-19T10:04:10;10.93;;;6.17;;
17570;SDS011;8903;52.220;20.978;2023-05-19T10:06:38;11.20;;;6.37;;
17570;SDS011;8903;52.220;20.978;2023-05-19T10:09:05;12.67;;;6.80;;
17570;SDS011;8903;52.220;20.978;2023-05-19T10:11:33;11.50;;;6.50;;
17570;SDS011;8903;52.220;20.978;2023-05-19T10:14:01;10.03;;;6.10;;
17570;SDS011;8903;52.220;20.978;2023-05-19T10:16:30;11.13;;;6.43;;
17570;SDS011;8903;52.220;20.978;2023-05-19T10:18:57;7.87;;;5.10;;
17570;SDS011;8903;52.220;20.978;2023-05-19T10:21:25;13.60;;;6.50;;
17570;SDS011;8903;52.220;20.978;2023-05-19T10:23:53;11.27;;;5.80;;
17570;SDS011;8903;52.220;20.978;2023-05-19T10:26:21;12.93;;;7.03;;
17570;SDS011;8903;52.220;20.978;2023-05-19T10:28:50;20.03;;;7.43;;
17570;SDS011;8903;52.220;20.978;2023-05-19T10:31:19;11.53;;;6.30;;
17570;SDS011;8903;52.220;20.978;2023-05-19T10:33:55;12.40;;;6.40;;
17570;SDS011;8903;52.220;20.978;2023-05-19T10:36:38;11.40;;;6.50;;
17570;SDS011;8903;52.220;20.978;2023-05-19T10:39:10;10.93;;;7.20;;
17570;SDS011;8903;52.220;20.978;2023-05-19T10:41:45;12.80;;;6.03;;
17570;SDS011;8903;52.220;20.978;2023-05-19T10:44:19;10.30;;;6.07;;
17570;SDS011;8903;52.220;20.978;2023-05-19T10:46:56;14.53;;;6.63;;
17570;SDS011;8903;52.220;20.978;2023-05-19T10:49:23;12.73;;;6.50;;
17570;SDS011;8903;52.220;20.978;2023-05-19T10:51:50;14.17;;;6.50;;
17570;SDS011;8903;52.220;20.978;2023-05-19T10:57:05;12.70;;;6.07;;
17570;SDS011;8903;52.220;20.978;2023-05-19T10:59:34;13.00;;;6.03;;
17570;SDS011;8903;52.220;20.978;2023-05-19T11:02:05;14.57;;;6.23;;
17570;SDS011;8903;52.220;20.978;2023-05-19T11:04:44;10.83;;;6.00;;
17570;SDS011;8903;52.220;20.978;2023-05-19T11:07:15;13.33;;;6.90;;
17570;SDS011;8903;52.220;20.978;2023-05-19T11:09:47;10.67;;;6.10;;
17570;SDS011;8903;52.220;20.978;2023-05-19T11:12:18;14.20;;;7.67;;
17570;SDS011;8903;52.220;20.978;2023-05-19T11:14:48;10.40;;;5.67;;
17570;SDS011;8903;52.220;20.978;2023-05-19T11:17:19;13.73;;;6.70;;
17570;SDS011;8903;52.220;20.978;2023-05-19T11:19:51;11.23;;;5.60;;
17570;SDS011;8903;52.220;20.978;2023-05-19T11:22:21;8.30;;;6.27;;
17570;SDS011;8903;52.220;20.978;2023-05-19T11:24:49;13.73;;;6.20;;
17570;SDS011;8903;52.220;20.978;2023-05-19T11:27:24;10.37;;;5.13;;
17570;SDS011;8903;52.220;20.978;2023-05-19T11:29:53;19.27;;;6.93;;
17570;SDS011;8903;52.220;20.978;2023-05-19T11:32:24;11.73;;;7.00;;
17570;SDS011;8903;52.220;20.978;2023-05-19T11:34:52;13.67;;;6.23;;
17570;SDS011;8903;52.220;20.978;2023-05-19T11:37:21;8.70;;;5.70;;
17570;SDS011;8903;52.220;20.978;2023-05-19T11:39:48;12.27;;;5.93;;
17570;SDS011;8903;52.220;20.978;2023-05-19T11:42:16;12.87;;;5.63;;
17570;SDS011;8903;52.220;20.978;2023-05-19T11:44:43;13.53;;;6.20;;
17570;SDS011;8903;52.220;20.978;2023-05-19T11:47:10;18.23;;;5.70;;
17570;SDS011;8903;52.220;20.978;2023-05-19T11:49:40;11.00;;;6.33;;
17570;SDS011;8903;52.220;20.978;2023-05-19T11:52:08;10.80;;;5.60;;
17570;SDS011;8903;52.220;20.978;2023-05-19T11:54:35;14.80;;;7.20;;
17570;SDS011;8903;52.220;20.978;2023-05-19T11:57:03;11.43;;;6.00;;
17570;SDS011;8903;52.220;20.978;2023-05-19T11:59:31;10.67;;;5.33;;
17570;SDS011;8903;52.220;20.978;2023-05-19T12:02:02;9.80;;;5.47;;
17570;SDS011;8903;52.220;20.978;2023-05-19T12:04:43;11.73;;;5.07;;
17570;SDS011;8903;52.220;20.978;2023-05-19T12:07:10;10.80;;;5.50;;
17570;SDS011;8903;52.220;20.978;2023-05-19T12:09:39;11.00;;;5.23;;
17570;SDS011;8903;52.220;20.978;2023-05-19T12:12:06;8.37;;;5.10;;
17570;SDS011;8903;52.220;20.978;2023-05-19T12:14:33;10.80;;;5.70;;
17570;SDS011;8903;52.220;20.978;2023-05-19T12:17:08;8.07;;;5.50;;
17570;SDS011;8903;52.220;20.978;2023-05-19T12:19:36;6.93;;;5.30;;
17570;SDS011;8903;52.220;20.978;2023-05-19T12:22:05;16.23;;;5.97;;
17570;SDS011;8903;52.220;20.978;2023-05-19T12:24:33;10.90;;;6.20;;
17570;SDS011;8903;52.220;20.978;2023-05-19T12:27:04;6.60;;;4.73;;
17570;SDS011;8903;52.220;20.978;2023-05-19T12:29:32;9.90;;;5.63;;
17570;SDS011;8903;52.220;20.978;2023-05-19T12:32:00;14.73;;;5.80;;
17570;SDS011;8903;52.220;20.978;2023-05-19T12:34:28;9.57;;;5.50;;
17570;SDS011;8903;52.220;20.978;2023-05-19T12:36:55;7.67;;;5.03;;
17570;SDS011;8903;52.220;20.978;2023-05-19T12:39:24;7.90;;;5.80;;
17570;SDS011;8903;52.220;20.978;2023-05-19T12:41:51;8.13;;;5.33;;
17570;SDS011;8903;52.220;20.978;2023-05-19T12:44:18;7.10;;;5.63;;
17570;SDS011;8903;52.220;20.978;2023-05-19T12:46:45;7.30;;;5.33;;
17570;SDS011;8903;52.220;20.978;2023-05-19T12:49:17;8.97;;;5.77;;
17570;SDS011;8903;52.220;20.978;2023-05-19T12:51:49;9.70;;;5.60;;
17570;SDS011;8903;52.220;20.978;2023-05-19T12:54:17;11.87;;;6.80;;
17570;SDS011;8903;52.220;20.978;2023-05-19T12:56:49;8.53;;;5.33;;
17570;SDS011;8903;52.220;20.978;2023-05-19T12:59:20;7.50;;;5.70;;
17570;SDS011;8903;52.220;20.978;2023-05-19T13:01:53;11.90;;;6.60;;
17570;SDS011;8903;52.220;20.978;2023-05-19T13:04:21;6.87;;;5.20;;
17570;SDS011;8903;52.220;20.978;2023-05-19T13:06:48;6.23;;;5.10;;
17570;SDS011;8903;52.220;20.978;2023-05-19T13:09:15;7.30;;;5.10;;
17570;SDS011;8903;52.220;20.978;2023-05-19T13:11:43;7.77;;;5.80;;
17570;SDS011;8903;52.220;20.978;2023-05-19T13:14:16;7.10;;;5.83;;
17570;SDS011;8903;52.220;20.978;2023-05-19T13:16:43;8.83;;;5.80;;
17570;SDS011;8903;52.220;20.978;2023-05-19T13:19:11;9.50;;;5.90;;
17570;SDS011;8903;52.220;20.978;2023-05-19T13:21:39;8.67;;;5.07;;
17570;SDS011;8903;52.220;20.978;2023-05-19T13:24:06;11.60;;;5.80;;
17570;SDS011;8903;52.220;20.978;2023-05-19T13:26:33;10.43;;;6.47;;
17570;SDS011;8903;52.220;20.978;2023-05-19T13:29:00;8.80;;;5.80;;
17570;SDS011;8903;52.220;20.978;2023-05-19T13:31:29;6.37;;;5.07;;
17570;SDS011;8903;52.220;20.978;2023-05-19T13:33:56;10.53;;;6.47;;
17570;SDS011;8903;52.220;20.978;2023-05-19T13:36:24;8.63;;;5.93;;
17570;SDS011;8903;52.220;20.978;2023-05-19T13:38:51;6.40;;;5.43;;
17570;SDS011;8903;52.220;20.978;2023-05-19T13:41:21;8.40;;;5.80;;
17570;SDS011;8903;52.220;20.978;2023-05-19T13:43:50;9.23;;;6.53;;
17570;SDS011;8903;52.220;20.978;2023-05-19T13:46:17;6.87;;;6.23;;
17570;SDS011;8903;52.220;20.978;2023-05-19T13:48:45;9.77;;;6.17;;
17570;SDS011;8903;52.220;20.978;2023-05-19T13:51:12;7.80;;;5.90;;
17570;SDS011;8903;52.220;20.978;2023-05-19T13:53:39;9.80;;;5.77;;
17570;SDS011;8903;52.220;20.978;2023-05-19T13:56:07;14.00;;;6.30;;
17570;SDS011;8903;52.220;20.978;2023-05-19T13:58:34;11.17;;;6.50;;
17570;SDS011;8903;52.220;20.978;2023-05-19T14:01:01;9.20;;;6.20;;
17570;SDS011;8903;52.220;20.978;2023-05-19T14:03:28;8.33;;;5.87;;
17570;SDS011;8903;52.220;20.978;2023-05-19T14:05:56;11.10;;;6.10;;
17570;SDS011;8903;52.220;20.978;2023-05-19T14:08:23;9.73;;;6.13;;
17570;SDS011;8903;52.220;20.978;2023-05-19T14:10:51;11.20;;;6.47;;
17570;SDS011;8903;52.220;20.978;2023-05-19T14:13:20;6.50;;;5.67;;
17570;SDS011;8903;52.220;20.978;2023-05-19T14:15:47;11.30;;;5.80;;
17570;SDS011;8903;52.220;20.978;2023-05-19T14:18:14;7.67;;;6.90;;
17570;SDS011;8903;52.220;20.978;2023-05-19T14:20:41;11.20;;;6.90;;
17570;SDS011;8903;52.220;20.978;2023-05-19T14:23:10;7.37;;;5.63;;
17570;SDS011;8903;52.220;20.978;2023-05-19T14:25:39;6.57;;;5.87;;
17570;SDS011;8903;52.220;20.978;2023-05-19T14:28:06;10.40;;;6.00;;
17570;SDS011;8903;52.220;20.978;2023-05-19T14:30:34;9.90;;;5.70;;
17570;SDS011;8903;52.220;20.978;2023-05-19T14:33:01;7.77;;;6.07;;
17570;SDS011;8903;52.220;20.978;2023-05-19T14:35:28;12.37;;;6.50;;
17570;SDS011;8903;52.220;20.978;2023-05-19T14:37:55;13.43;;;6.33;;
17570;SDS011;8903;52.220;20.978;2023-05-19T14:40:23;12.00;;;6.07;;
17570;SDS011;8903;52.220;20.978;2023-05-19T14:42:50;13.00;;;6.37;;
17570;SDS011;8903;52.220;20.978;2023-05-19T14:45:17;11.77;;;6.77;;
17570;SDS011;8903;52.220;20.978;2023-05-19T14:47:44;9.13;;;6.63;;
17570;SDS011;8903;52.220;20.978;2023-05-19T14:50:11;9.60;;;6.20;;
17570;SDS011;8903;52.220;20.978;2023-05-19T14:52:38;10.00;;;5.57;;
17570;SDS011;8903;52.220;20.978;2023-05-19T14:55:05;8.93;;;6.30;;
17570;SDS011;8903;52.220;20.978;2023-05-19T14:57:34;8.00;;;5.73;;